Northern Cambria, Pennsylvania
Current Conditions -  °F | °C
As of 5:55 PM on Monday 24 Nov 2014 (Local Time) from KIDI Reporting Station
Broken Clouds Broken Clouds  
Wind Chill: 63°   Ceiling: 9000
Heat Index: 63°   Visibility: 10mi
Dew Point: 41°   Wind: 24mph
Humidity: 45%   Direction: 270°W
Pressure: 29.63"   Gusts: 32mph
Location:  40.6905°N, 78.7599°W
Report Text: KIDI 242255Z AUTO 27021G28KT 10SM SCT075 BKN090 17/05 A2963 RMK A01
Loading
Personal Weather Stations






























Interactive Weather Map New forecast layout! Learn more

10-Day Weather Forecast

Advertisements
Track Severe Weather on mobile